Flight Track Log - Related Links

Times and Time Zones

All times are in EST time to prevent confusion due to time zone crossing. See the EJA396 flight status page for this flight to view local times or setup timezone preferences in your user account.

Time Position Orientation Groundspeed Altitude Reporting Facility
EST Latitude Longitude Course Direction KTS MPH feet Rate Location/Type
Sun 02:11:24 PM 26.1406 -81.9314 342° North 239 275 6,900  Level Miami Center
Sun 02:12:24 PM 26.2072 -81.9389 354° North 305 351 9,900 2,300 Climbing Miami Center
Sun 02:13:24 PM 26.3061 -81.9178 11° North 340 391 11,500 2,300 Climbing Miami Center
Sun 02:14:24 PM 26.4092 -81.8942 12° North 367 422 14,500 3,000 Climbing Miami Center
Sun 02:15:00 PM 26.9047 -81.7790 342° North  Level Estimated
Sun 02:15:24 PM 26.5231 -81.8642 13° North 373 429 17,500  Level Miami Center
Sun 02:16:24 PM 26.6239 -81.8408 12° North 373 429 20,200 2,650 Climbing Miami Center
Sun 02:17:24 PM 26.7292 -81.8150 12° North 373 429 22,800 1,400 Climbing Miami Center
Sun 02:18:24 PM 26.8469 -81.7875 12° North 393 452 23,000 100 Climbing Miami Center
Sun 02:19:24 PM 26.9797 -81.7558 12° North 432 497 23,000 400 Level Miami Center
Sun 02:20:24 PM 27.0919 -81.7697 354° North 469 540 23,800 1,450 Climbing Miami Center
Sun 02:21:24 PM 27.2167 -81.7822 355° North 453 521 25,900 2,300 Climbing Miami Center
Sun 02:22:24 PM 27.3497 -81.7364 17° North 448 516 28,400 1,800 Climbing Miami Center
Sun 02:23:24 PM 27.4742 -81.6972 16° North 458 527 29,500 1,050 Climbing Miami Center
Sun 02:24:24 PM 27.6031 -81.6533 17° North 472 543 30,500 1,000 Climbing Miami Center
Sun 02:25:24 PM 27.7233 -81.6139 16° North 486 559 31,500 900 Climbing Miami Center
Sun 02:26:24 PM 27.8583 -81.5681 17° North 491 565 32,300 900 Climbing Miami Center
Sun 02:27:24 PM 27.9933 -81.5242 16° North 497 572 33,300 1,000 Climbing Miami Center
Sun 02:28:24 PM 28.1319 -81.4947 11° North 497 572 34,300 1,000 Climbing Miami Center
Sun 02:29:24 PM 28.2719 -81.4861 North 497 572 35,300 1,000 Climbing Miami Center
Sun 02:30:24 PM 28.4100 -81.4753 North 497 572 36,300 1,036 Climbing Miami Center
Sun 02:31:43 PM 28.6053 -81.4619 North 504 580 37,700 1,036 Climbing Jacksonville Center
Sun 02:32:43 PM 28.7408 -81.4528 North 499 574 38,700 650 Climbing Jacksonville Center
Sun 02:33:43 PM 28.8703 -81.4486 North 480 552 39,000 150 Climbing Jacksonville Center
Sun 02:34:43 PM 28.9917 -81.4825 346° North 459 528 39,000  Level Jacksonville Center
Sun 02:35:43 PM 29.1131 -81.5236 344° North 447 514 39,000  Level Jacksonville Center
Sun 02:36:43 PM 29.2178 -81.5625 342° North 442 509 39,000  Level Jacksonville Center
Sun 02:37:43 PM 29.3394 -81.6039 343° North 442 509 39,000  Level Jacksonville Center
Sun 02:38:43 PM 29.4586 -81.6403 345° North 442 509 39,000  Level Jacksonville Center
Sun 02:39:43 PM 29.5861 -81.6556 354° North 442 509 39,000  Level Jacksonville Center
Sun 02:40:43 PM 29.7178 -81.6731 353° North 460 529 39,000  Level Jacksonville Center
Sun 02:41:43 PM 29.8475 -81.6881 354° North 466 536 39,000  Level Jacksonville Center
Sun 02:42:43 PM 29.9728 -81.7033 354° North 466 536 39,000  Level Jacksonville Center
Sun 02:43:43 PM 30.1003 -81.7161 355° North 466 536 39,000  Level Jacksonville Center
Sun 02:44:43 PM 30.2444 -81.7311 355° North 461 531 39,000  Level Jacksonville Center
Sun 02:45:43 PM 30.3700 -81.7467 354° North 463 533 39,000  Level Jacksonville Center
Sun 02:46:43 PM 30.4975 -81.7619 354° North 463 533 39,000  Level Jacksonville Center
Sun 02:47:43 PM 30.6311 -81.7797 353° North 468 539 39,000  Level Jacksonville Center
Sun 02:48:43 PM 30.7586 -81.7950 354° North 468 539 39,000  Level Jacksonville Center
Sun 02:49:43 PM 30.8883 -81.8128 353° North 463 533 39,000  Level Jacksonville Center
Sun 02:50:43 PM 31.0178 -81.8283 354° North 463 533 39,000  Level Jacksonville Center
Sun 02:51:43 PM 31.1475 -81.8439 354° North 463 533 39,000  Level Jacksonville Center
Sun 02:52:43 PM 31.2769 -81.8594 354° North 468 539 39,000  Level Jacksonville Center
Sun 02:53:43 PM 31.3942 -81.8728 354° North 461 531 39,000  Level Jacksonville Center
Sun 02:56:41 PM 31.7972 -81.9253 354° North 488 562 39,000  Level Atlanta Center
Sun 02:57:41 PM 31.9269 -81.9392 355° North 483 556 39,000  Level Atlanta Center
Sun 02:58:41 PM 32.0567 -81.9558 354° North 483 556 39,000  Level Atlanta Center
Sun 02:59:41 PM 32.1906 -81.9725 354° North 483 556 39,000  Level Atlanta Center
Sun 03:00:41 PM 32.3203 -81.9889 354° North 478 550 39,000  Level Atlanta Center
Sun 03:01:41 PM 32.4542 -82.0031 355° North 478 550 39,000  Level Atlanta Center
Sun 03:02:41 PM 32.5817 -82.0200 354° North 478 550 39,000  Level Atlanta Center
Sun 03:03:41 PM 32.7133 -82.0367 354° North 473 544 39,000  Level Atlanta Center
Sun 03:04:41 PM 32.8450 -82.0508 355° North 473 544 39,000  Level Atlanta Center
Sun 03:05:41 PM 32.9808 -82.0478 North 478 550 39,000  Level Atlanta Center
Sun 03:06:41 PM 33.1206 -82.0397 North 484 557 39,000  Level Atlanta Center
Sun 03:07:41 PM 33.2581 -82.0317 North 489 563 39,000  Level Atlanta Center
Sun 03:08:41 PM 33.4019 -82.0233 North 496 571 39,000  Level Atlanta Center
Sun 03:09:41 PM 33.5417 -82.0150 North 496 571 39,000  Level Atlanta Center
Sun 03:10:41 PM 33.6669 -82.0069 North 496 571 39,000  Level Atlanta Center
Sun 03:11:41 PM 33.8086 -81.9986 North 496 571 39,000  Level Atlanta Center
Sun 03:12:41 PM 33.9483 -81.9903 North 496 571 39,000  Level Atlanta Center
Sun 03:13:41 PM 34.0900 -81.9819 North 496 571 39,000  Level Atlanta Center
Sun 03:14:41 PM 34.2297 -81.9761 North 496 571 39,000  Level Atlanta Center
Sun 03:15:41 PM 34.3675 -81.9678 North 496 571 39,000  Level Atlanta Center
Sun 03:16:41 PM 34.5092 -81.9592 North 496 571 39,000  Level Atlanta Center
Sun 03:17:41 PM 34.6447 -81.9508 North 496 571 39,000  Level Atlanta Center
Sun 03:18:41 PM 34.7822 -81.9447 North 496 571 39,000  Level Atlanta Center
Sun 03:19:41 PM 34.9367 -81.9383 North 496 571 39,000  Level Atlanta Center
Sun 03:20:41 PM 35.0783 -81.9297 North 496 571 39,000  Level Atlanta Center
Sun 03:21:41 PM 35.2139 -81.9236 North 496 571 39,000  Level Atlanta Center
Sun 03:22:41 PM 35.3494 -81.9178 North 496 571 39,000  Level Atlanta Center
Sun 03:23:41 PM 35.4892 -81.9114 North 496 571 39,000  Level Atlanta Center
Sun 03:24:41 PM 35.6100 -81.9033 North 496 571 39,000  Level Atlanta Center
Sun 03:25:41 PM 35.7497 -81.8972 North 496 571 39,000  Level Atlanta Center
Sun 03:26:41 PM 35.8831 -81.8908 North 491 565 39,000  Level Atlanta Center
Sun 03:27:41 PM 36.0228 -81.8847 North 491 565 39,000  Level Atlanta Center
Sun 03:28:41 PM 36.1581 -81.8761 North 491 565 39,000  Level Atlanta Center
Sun 03:29:41 PM 36.2914 -81.8725 North 486 559 39,000  Level Atlanta Center
Sun 03:30:41 PM 36.4289 -81.8636 North 486 559 39,000  Level Atlanta Center
Sun 03:31:41 PM 36.5789 -81.8569 North 486 559 39,000  Level Atlanta Center
Sun 03:32:41 PM 36.7144 -81.8506 North 486 559 39,000  Level Atlanta Center
Sun 03:34:43 PM 36.9878 -81.8375 North 493 567 39,000  Level Indianapolis Center
Sun 03:35:45 PM 37.1236 -81.8306 North 490 564 39,000  Level Indianapolis Center
Sun 03:36:47 PM 37.2594 -81.8250 North 489 563 39,000  Level Indianapolis Center
Sun 03:37:49 PM 37.4183 -81.8172 North 491 565 39,000  Level Indianapolis Center
Sun 03:38:51 PM 37.5514 -81.8100 North 483 556 39,000  Level Indianapolis Center
Sun 03:39:53 PM 37.6858 -81.8058 North 484 557 39,000  Level Indianapolis Center
Sun 03:40:55 PM 37.8194 -81.7981 North 484 557 39,000  Level Indianapolis Center
Sun 03:41:57 PM 37.9486 -81.8081 357° North 478 550 39,000  Level Indianapolis Center
Sun 03:42:59 PM 38.0778 -81.8208 356° North 469 540 39,000  Level Indianapolis Center
Sun 03:44:01 PM 38.2081 -81.8361 355° North 468 539 39,000 -145 Level Indianapolis Center
Sun 03:45:03 PM 38.3647 -81.8569 354° North 469 540 38,700 -726 Descending Indianapolis Center
Sun 03:46:05 PM 38.4978 -81.8733 354° North 473 544 37,500 -1,355 Descending Indianapolis Center
Sun 03:47:07 PM 38.6228 -81.8897 354° North 451 519 35,900 -1,645 Descending Indianapolis Center
Sun 03:48:09 PM 38.7500 -81.9042 355° North 452 520 34,100 -919 Descending Indianapolis Center
Sun 03:49:11 PM 38.8800 -81.9219 354° North 460 529 34,000 -48 Descending Indianapolis Center
Sun 03:50:13 PM 39.0119 -81.9383 354° North 470 541 34,000  Level Indianapolis Center
Sun 03:51:15 PM 39.1472 -81.9458 358° North 481 554 34,000  Level Indianapolis Center
Sun 03:52:17 PM 39.2792 -81.9542 357° North 474 545 34,000 -484 Level Indianapolis Center
Sun 03:53:19 PM 39.4106 -81.9619 357° North 473 544 33,000 -1,790 Descending Indianapolis Center
Sun 03:54:21 PM 39.5564 -81.9664 359° North 435 501 30,300 -2,468 Descending Indianapolis Center
Sun 03:55:23 PM 39.6811 -81.9756 357° North 446 513 27,900 -2,323 Descending Indianapolis Center
Sun 03:56:25 PM 39.8033 -81.9792 359° North 440 506 25,500 -2,323 Descending Indianapolis Center
Sun 03:57:27 PM 39.9167 -81.9875 357° North 411 473 23,100 -1,210 Descending Indianapolis Center
Sun 03:58:29 PM 40.0311 -81.9889 359° North 404 465 23,000 -48 Descending Indianapolis Center
Sun 03:59:31 PM 40.1422 -81.9953 357° North 399 459 23,000 -581 Level Indianapolis Center
Sun 04:00:33 PM 40.2722 -82.0017 358° North 397 457 21,800 -1,210 Descending Indianapolis Center
Sun 04:01:35 PM 40.3828 -82.0067 358° North 396 456 20,500 -1,597 Descending Indianapolis Center
Sun 04:02:37 PM 40.4889 -82.0144 357° North 383 441 18,500 -1,790 Descending Indianapolis Center
Sun 04:03:39 PM 40.5933 -81.9900 10° North 388 447 16,800 -1,514 Descending Indianapolis Center
Sun 04:04:24 PM 40.6550 -81.9331 35° Northeast 398 458 15,800 -1,556 Descending Cleveland Center
Sun 04:05:27 PM 40.7544 -81.8333 37° Northeast 384 442 14,000 -1,776 Descending Cleveland Center
Sun 04:06:29 PM 40.8339 -81.7536 37° Northeast 360 414 12,100 -1,833 Descending Cleveland Center
Sun 04:06:39 PM 40.8492 -81.7378 38° Northeast 338 389 11,800 -1,729 Descending Cleveland Center
Sun 04:07:28 PM 40.9069 -81.6806 37° Northeast 329 379 10,400 -1,731 Descending Cleveland Center
Sun 04:07:31 PM 40.9081 -81.6800 21° North 334 384 10,300 -462 Descending Cleveland Center
Sun 04:08:33 PM 40.9886 -81.6361 22° Northeast 318 366 9,900 -145 Descending Cleveland Center
Sun 04:09:35 PM 41.0761 -81.6686 344° North 294 338 10,000 49 Climbing Cleveland Center
Sun 04:10:36 PM 41.1561 -81.6897 349° North 296 341 10,000  Level Cleveland Center
Sun 04:10:37 PM 41.1478 -81.6850 157° South 296 341 10,000 -590 Level Cleveland Center
Sun 04:11:37 PM 41.2203 -81.7000 351° North 202 232 9,400 -581 Descending Cleveland Center
Sun 04:11:39 PM 41.2242 -81.7000 360° North 225 259 9,400 -1,111 Level Cleveland Center
Sun 04:12:31 PM 41.2758 -81.7117 350° North 218 251 8,400 -1,161 Descending Cleveland Center
Sun 04:12:41 PM 41.2861 -81.7125 357° North 218 251 8,200 -393 Descending Cleveland Center
Sun 04:13:32 PM 41.3292 -81.7258 347° North 186 214 8,000 -194 Descending Cleveland Center
Sun 04:13:43 PM 41.3403 -81.7264 358° North 192 221 8,000  Level Cleveland Center
Sun 04:14:33 PM 41.3767 -81.7336 352° North 173 199 8,000 -97 Level Cleveland Center
Sun 04:14:45 PM 41.3894 -81.7244 28° Northeast 180 207 7,900 -806 Descending Cleveland Center
Sun 04:15:40 PM 41.4228 -81.6656 53° Northeast 242 278 7,100 -857 Descending Cleveland Center
Sun 04:15:48 PM 41.4267 -81.6592 51° Northeast 215 247 7,000 -1,100 Descending Cleveland Center
Sun 04:16:40 PM 41.4619 -81.6050 49° Northeast 213 245 6,000 -968 Descending Cleveland Center
Sun 04:16:50 PM 41.4647 -81.5972 65° Northeast 215 247 6,000 -689 Level Cleveland Center
Sun 04:17:41 PM 41.5083 -81.5789 17° North 183 211 5,300 -484 Descending Cleveland Center
Sun 04:17:52 PM 41.5128 -81.5794 355° North 202 232 5,500 -1,068 Climbing Cleveland Center
Sun 04:18:54 PM 41.5542 -81.6133 329° Northwest 182 209 4,000 -811 Descending Cleveland Center
Sun 04:19:43 PM 41.5397 -81.6508 243° Southwest 148 170 4,000  Level Cleveland Center
Sun 04:19:56 PM 41.5344 -81.6564 218° Southwest 161 185 4,000 -100 Level Cleveland Center
Sun 04:20:43 PM 41.5100 -81.6992 233° Southwest 174 200 3,900 -290 Descending Cleveland Center
Sun 04:20:58 PM 41.5058 -81.7044 223° Southwest 161 185 3,700 -984 Descending Cleveland Center
Sun 04:21:44 PM 41.4781 -81.7500 231° Southwest 165 190 2,900 -968 Descending Cleveland Center
Sun 04:22:00 PM 41.4717 -81.7581 223° Southwest 163 188 2,700 -197 Descending Cleveland Center
Sun 04:22:45 PM 41.4539 -81.7850 229° Southwest 117 135 2,700 194 Level Cleveland Center
Sun 04:23:02 PM 41.4475 -81.7936 225° Southwest 141 162 2,900 1,068 Climbing Cleveland Center
Sun 04:23:58 PM 41.4008 -81.8378 215° Southwest 252 290 4,000 1,065 Climbing Cleveland Center
Sun 04:24:04 PM 41.3978 -81.8369 168° South 204 235 4,000  Level Cleveland Center
Sun 04:25:04 PM 41.3331 -81.7961 155° Southeast 259 298 4,000  Level Cleveland Center
Sun 04:25:06 PM 41.3372 -81.8044 304° West 238 274 4,000  Level Cleveland Center
Sun 04:25:47 PM 41.3503 -81.7461 73° East 199 229 4,000  Level Cleveland Center
Sun 04:26:08 PM 41.3592 -81.7336 47° Northeast 217 250 4,000  Level Cleveland Center
Sun 04:26:48 PM 41.3872 -81.6878 51° Northeast 201 231 4,000  Level Cleveland Center
Sun 04:27:11 PM 41.3956 -81.6739 51° Northeast 206 237 4,000  Level Cleveland Center
Sun 04:28:00 PM 41.4314 -81.6169 50° Northeast 205 236 4,000  Level Cleveland Center
Sun 04:28:13 PM 41.4397 -81.6044 48° Northeast 206 237 4,000  Level Cleveland Center
Sun 04:29:01 PM 41.4717 -81.5675 41° Northeast 191 220 4,000  Level Cleveland Center
Sun 04:29:15 PM 41.4808 -81.5578 38° Northeast 201 231 4,000  Level Cleveland Center
Sun 04:29:55 PM 41.5139 -81.5406 21° North 181 208 4,000  Level Cleveland Center
Sun 04:30:17 PM 41.5239 -81.5492 327° Northwest 180 207 4,000  Level Cleveland Center
Sun 04:30:56 PM 41.5511 -81.5689 332° Northwest 156 180 4,000  Level Cleveland Center
Sun 04:31:19 PM 41.5542 -81.5842 285° West 165 190 4,000  Level Cleveland Center
Sun 04:31:51 PM 41.5489 -81.6189 259° West 153 176 4,000  Level Cleveland Center
Sun 04:32:21 PM 41.5417 -81.6375 243° Southwest 155 178 4,000  Level Cleveland Center
Sun 04:32:51 PM 41.5297 -81.6661 241° Southwest 155 178 4,000  Level Cleveland Center
Sun 04:33:23 PM 41.5194 -81.6836 232° Southwest 150 173 4,000 -295 Level Cleveland Center
Sun 04:33:52 PM 41.5028 -81.7092 229° Southwest 150 173 3,700 -774 Descending Cleveland Center
Sun 04:34:25 PM 41.4875 -81.7336 230° Southwest 150 173 3,200 -900 Descending Cleveland Center
Sun 04:34:52 PM 41.4758 -81.7522 230° Southwest 148 170 2,800 -774 Descending Cleveland Center
Sun 04:35:27 PM 41.4628 -81.7717 228° Southwest 143 165 2,400 -590 Descending Cleveland Center
Sun 04:35:53 PM 41.4558 -81.7853 236° Southwest 110 127 2,200 -581 Descending Cleveland Center
Sun 04:36:29 PM 41.4433 -81.8033 227° Southwest 121 139 1,800 -627 Descending Cleveland Center
Sun 04:37:00 PM 41.4339 -81.8208 234° Southwest 116 133 1,500 -581 Descending Cleveland Center
Sun 04:37:31 PM 41.4236 -81.8358 228° Southwest 115 132 1,200 -452 Descending Cleveland Center
Sun 04:38:33 PM 41.4036 -81.8661 229° Southwest 106 122 800 -387 Descending Cleveland Center

Login

Don't have an account? Register now (free) for customized features, flight alerts, and more!